Aral Moreira, Brazil
Current Conditions -  °F | °C
As of 10:00 AM on Sunday 21 Dec 2014 (Local Time) from SBPP Reporting Station
Broken Clouds Broken Clouds  
Wind Chill: 82°   Ceiling: 8000
Heat Index: 86°   Visibility: 6mi
Dew Point: 70°   Wind: 23mph
Humidity: 66%   Direction: 300°WNW
Pressure: 29.8"   Gusts: NA
Location:  22.93°S, 55.64°W
Report Text: SBPP 211300Z 30020KT 9999 SCT020 BKN080 28/21 Q1009
Loading
Personal Weather Stations






























Interactive Weather Map New forecast layout! Learn more

10-Day Weather Forecast

Advertisements
Track Severe Weather on mobile